sensor_id;sensor_type;location;lat;lon;timestamp;P1;durP1;ratioP1;P2;durP2;ratioP2
78197;SDS011;67472;51.554;7.812;2023-07-29T00:01:58;8.38;;;3.30;;
78197;SDS011;67472;51.554;7.812;2023-07-29T00:04:46;5.00;;;3.30;;
78197;SDS011;67472;51.554;7.812;2023-07-29T00:07:32;3.33;;;3.00;;
78197;SDS011;67472;51.554;7.812;2023-07-29T00:10:18;3.95;;;3.13;;
78197;SDS011;67472;51.554;7.812;2023-07-29T00:13:04;7.75;;;3.50;;
78197;SDS011;67472;51.554;7.812;2023-07-29T00:15:53;4.47;;;2.75;;
78197;SDS011;67472;51.554;7.812;2023-07-29T00:18:39;3.72;;;2.47;;
78197;SDS011;67472;51.554;7.812;2023-07-29T00:21:27;5.20;;;2.65;;
78197;SDS011;67472;51.554;7.812;2023-07-29T00:24:13;4.72;;;3.13;;
78197;SDS011;67472;51.554;7.812;2023-07-29T00:26:58;6.07;;;2.97;;
78197;SDS011;67472;51.554;7.812;2023-07-29T00:29:45;3.47;;;2.50;;
78197;SDS011;67472;51.554;7.812;2023-07-29T00:32:33;2.55;;;2.35;;
78197;SDS011;67472;51.554;7.812;2023-07-29T00:35:19;2.90;;;2.70;;
78197;SDS011;67472;51.554;7.812;2023-07-29T00:38:07;3.33;;;2.50;;
78197;SDS011;67472;51.554;7.812;2023-07-29T00:40:53;3.33;;;3.00;;
78197;SDS011;67472;51.554;7.812;2023-07-29T00:43:39;3.05;;;2.80;;
78197;SDS011;67472;51.554;7.812;2023-07-29T00:46:25;3.22;;;2.78;;
78197;SDS011;67472;51.554;7.812;2023-07-29T00:49:15;5.20;;;2.90;;
78197;SDS011;67472;51.554;7.812;2023-07-29T00:52:01;7.13;;;3.38;;
78197;SDS011;67472;51.554;7.812;2023-07-29T00:54:49;3.72;;;2.90;;
78197;SDS011;67472;51.554;7.812;2023-07-29T00:57:35;5.10;;;2.75;;
78197;SDS011;67472;51.554;7.812;2023-07-29T01:00:22;4.15;;;3.20;;
78197;SDS011;67472;51.554;7.812;2023-07-29T01:03:09;3.45;;;2.80;;
78197;SDS011;67472;51.554;7.812;2023-07-29T01:05:59;3.33;;;2.50;;
78197;SDS011;67472;51.554;7.812;2023-07-29T01:08:55;4.15;;;2.72;;
78197;SDS011;67472;51.554;7.812;2023-07-29T01:11:49;6.93;;;2.70;;
78197;SDS011;67472;51.554;7.812;2023-07-29T01:14:51;2.80;;;2.60;;
78197;SDS011;67472;51.554;7.812;2023-07-29T01:17:46;3.15;;;2.85;;
78197;SDS011;67472;51.554;7.812;2023-07-29T01:20:36;4.20;;;2.60;;
78197;SDS011;67472;51.554;7.812;2023-07-29T01:23:27;3.05;;;2.38;;
78197;SDS011;67472;51.554;7.812;2023-07-29T01:26:16;2.88;;;2.67;;
78197;SDS011;67472;51.554;7.812;2023-07-29T01:29:02;3.05;;;2.75;;
78197;SDS011;67472;51.554;7.812;2023-07-29T01:31:49;2.83;;;2.60;;
78197;SDS011;67472;51.554;7.812;2023-07-29T01:34:41;3.08;;;2.75;;
78197;SDS011;67472;51.554;7.812;2023-07-29T01:37:33;3.08;;;2.80;;
78197;SDS011;67472;51.554;7.812;2023-07-29T01:40:23;3.00;;;2.80;;
78197;SDS011;67472;51.554;7.812;2023-07-29T01:43:12;4.32;;;3.40;;
78197;SDS011;67472;51.554;7.812;2023-07-29T01:46:00;5.10;;;3.20;;
78197;SDS011;67472;51.554;7.812;2023-07-29T01:48:46;3.72;;;3.42;;
78197;SDS011;67472;51.554;7.812;2023-07-29T01:51:32;3.97;;;3.65;;
78197;SDS011;67472;51.554;7.812;2023-07-29T01:54:18;4.63;;;3.95;;
78197;SDS011;67472;51.554;7.812;2023-07-29T01:57:06;6.75;;;3.53;;
78197;SDS011;67472;51.554;7.812;2023-07-29T01:59:52;3.92;;;3.63;;
78197;SDS011;67472;51.554;7.812;2023-07-29T02:02:38;5.95;;;3.88;;
78197;SDS011;67472;51.554;7.812;2023-07-29T02:05:24;4.07;;;3.40;;
78197;SDS011;67472;51.554;7.812;2023-07-29T02:08:10;4.78;;;4.38;;
78197;SDS011;67472;51.554;7.812;2023-07-29T02:10:56;4.13;;;3.83;;
78197;SDS011;67472;51.554;7.812;2023-07-29T02:13:44;6.28;;;4.00;;
78197;SDS011;67472;51.554;7.812;2023-07-29T02:16:30;4.47;;;4.05;;
78197;SDS011;67472;51.554;7.812;2023-07-29T02:19:17;9.98;;;5.03;;
78197;SDS011;67472;51.554;7.812;2023-07-29T02:22:03;4.63;;;4.13;;
78197;SDS011;67472;51.554;7.812;2023-07-29T02:24:49;8.23;;;4.60;;
78197;SDS011;67472;51.554;7.812;2023-07-29T02:27:35;12.02;;;5.10;;
78197;SDS011;67472;51.554;7.812;2023-07-29T02:30:23;7.30;;;4.82;;
78197;SDS011;67472;51.554;7.812;2023-07-29T02:33:09;5.20;;;4.60;;
78197;SDS011;67472;51.554;7.812;2023-07-29T02:35:55;4.57;;;4.13;;
78197;SDS011;67472;51.554;7.812;2023-07-29T02:38:41;7.47;;;4.05;;
78197;SDS011;67472;51.554;7.812;2023-07-29T02:41:28;5.75;;;3.90;;
78197;SDS011;67472;51.554;7.812;2023-07-29T02:44:14;4.72;;;3.40;;
78197;SDS011;67472;51.554;7.812;2023-07-29T02:47:02;5.75;;;4.53;;
78197;SDS011;67472;51.554;7.812;2023-07-29T02:49:49;5.57;;;4.20;;
78197;SDS011;67472;51.554;7.812;2023-07-29T02:52:35;4.90;;;3.83;;
78197;SDS011;67472;51.554;7.812;2023-07-29T02:55:21;4.28;;;3.88;;
78197;SDS011;67472;51.554;7.812;2023-07-29T02:58:07;3.90;;;3.60;;
78197;SDS011;67472;51.554;7.812;2023-07-29T03:00:53;5.03;;;3.95;;
78197;SDS011;67472;51.554;7.812;2023-07-29T03:03:47;6.13;;;3.88;;
78197;SDS011;67472;51.554;7.812;2023-07-29T03:06:33;4.43;;;3.88;;
78197;SDS011;67472;51.554;7.812;2023-07-29T03:09:19;4.57;;;3.80;;
78197;SDS011;67472;51.554;7.812;2023-07-29T03:12:05;4.63;;;3.08;;
78197;SDS011;67472;51.554;7.812;2023-07-29T03:14:52;5.47;;;3.50;;
78197;SDS011;67472;51.554;7.812;2023-07-29T03:17:38;4.00;;;3.60;;
78197;SDS011;67472;51.554;7.812;2023-07-29T03:20:25;7.65;;;3.55;;
78197;SDS011;67472;51.554;7.812;2023-07-29T03:23:12;4.50;;;3.85;;
78197;SDS011;67472;51.554;7.812;2023-07-29T03:25:58;11.40;;;4.40;;
78197;SDS011;67472;51.554;7.812;2023-07-29T03:28:45;3.25;;;3.00;;
78197;SDS011;67472;51.554;7.812;2023-07-29T03:31:31;7.45;;;4.07;;
78197;SDS011;67472;51.554;7.812;2023-07-29T03:34:17;3.15;;;2.95;;
78197;SDS011;67472;51.554;7.812;2023-07-29T03:37:06;6.20;;;3.65;;
78197;SDS011;67472;51.554;7.812;2023-07-29T03:39:52;6.57;;;2.80;;
78197;SDS011;67472;51.554;7.812;2023-07-29T03:42:39;5.65;;;3.22;;
78197;SDS011;67472;51.554;7.812;2023-07-29T03:45:25;8.55;;;3.17;;
78197;SDS011;67472;51.554;7.812;2023-07-29T03:48:11;4.40;;;2.88;;
78197;SDS011;67472;51.554;7.812;2023-07-29T03:50:57;6.47;;;3.05;;
78197;SDS011;67472;51.554;7.812;2023-07-29T03:53:45;13.93;;;3.55;;
78197;SDS011;67472;51.554;7.812;2023-07-29T03:56:31;7.25;;;3.65;;
78197;SDS011;67472;51.554;7.812;2023-07-29T03:59:19;3.90;;;3.50;;
78197;SDS011;67472;51.554;7.812;2023-07-29T04:02:07;9.93;;;3.40;;
78197;SDS011;67472;51.554;7.812;2023-07-29T04:04:53;3.38;;;3.08;;
78197;SDS011;67472;51.554;7.812;2023-07-29T04:07:39;11.23;;;4.00;;
78197;SDS011;67472;51.554;7.812;2023-07-29T04:10:27;9.02;;;3.97;;
78197;SDS011;67472;51.554;7.812;2023-07-29T04:13:16;9.68;;;3.47;;
78197;SDS011;67472;51.554;7.812;2023-07-29T04:16:03;6.05;;;3.90;;
78197;SDS011;67472;51.554;7.812;2023-07-29T04:18:49;12.43;;;3.88;;
78197;SDS011;67472;51.554;7.812;2023-07-29T04:21:36;13.10;;;5.00;;
78197;SDS011;67472;51.554;7.812;2023-07-29T04:24:22;8.90;;;4.15;;
78197;SDS011;67472;51.554;7.812;2023-07-29T04:27:10;9.00;;;4.78;;
78197;SDS011;67472;51.554;7.812;2023-07-29T04:29:56;7.75;;;5.65;;
78197;SDS011;67472;51.554;7.812;2023-07-29T04:32:42;8.40;;;5.80;;
78197;SDS011;67472;51.554;7.812;2023-07-29T04:35:29;7.28;;;5.47;;
78197;SDS011;67472;51.554;7.812;2023-07-29T04:38:15;13.55;;;6.13;;
78197;SDS011;67472;51.554;7.812;2023-07-29T04:41:01;9.40;;;6.43;;
78197;SDS011;67472;51.554;7.812;2023-07-29T04:43:48;8.30;;;6.22;;
78197;SDS011;67472;51.554;7.812;2023-07-29T04:46:35;6.65;;;5.88;;
78197;SDS011;67472;51.554;7.812;2023-07-29T04:49:23;10.80;;;5.97;;
78197;SDS011;67472;51.554;7.812;2023-07-29T04:52:09;7.35;;;6.65;;
78197;SDS011;67472;51.554;7.812;2023-07-29T04:54:55;9.45;;;7.10;;
78197;SDS011;67472;51.554;7.812;2023-07-29T04:57:41;7.43;;;6.18;;
78197;SDS011;67472;51.554;7.812;2023-07-29T05:00:29;14.38;;;7.95;;
78197;SDS011;67472;51.554;7.812;2023-07-29T05:03:15;12.38;;;7.25;;
78197;SDS011;67472;51.554;7.812;2023-07-29T05:06:01;9.82;;;7.45;;
78197;SDS011;67472;51.554;7.812;2023-07-29T05:08:48;11.73;;;6.85;;
78197;SDS011;67472;51.554;7.812;2023-07-29T05:11:34;7.63;;;6.47;;
78197;SDS011;67472;51.554;7.812;2023-07-29T05:14:20;9.68;;;7.07;;
78197;SDS011;67472;51.554;7.812;2023-07-29T05:17:08;10.20;;;7.03;;
78197;SDS011;67472;51.554;7.812;2023-07-29T05:19:54;9.30;;;7.68;;
78197;SDS011;67472;51.554;7.812;2023-07-29T05:22:40;10.43;;;7.20;;
78197;SDS011;67472;51.554;7.812;2023-07-29T05:25:27;7.97;;;6.43;;
78197;SDS011;67472;51.554;7.812;2023-07-29T05:28:13;7.22;;;6.63;;
78197;SDS011;67472;51.554;7.812;2023-07-29T05:31:00;9.48;;;6.82;;
78197;SDS011;67472;51.554;7.812;2023-07-29T05:33:47;7.97;;;7.18;;
78197;SDS011;67472;51.554;7.812;2023-07-29T05:36:34;8.57;;;7.30;;
78197;SDS011;67472;51.554;7.812;2023-07-29T05:39:19;10.50;;;7.35;;
78197;SDS011;67472;51.554;7.812;2023-07-29T05:42:06;12.07;;;7.60;;
78197;SDS011;67472;51.554;7.812;2023-07-29T05:44:53;12.02;;;8.77;;
78197;SDS011;67472;51.554;7.812;2023-07-29T05:47:38;10.25;;;8.15;;
78197;SDS011;67472;51.554;7.812;2023-07-29T05:50:26;12.98;;;8.73;;
78197;SDS011;67472;51.554;7.812;2023-07-29T05:53:13;13.30;;;9.05;;
78197;SDS011;67472;51.554;7.812;2023-07-29T05:55:59;10.55;;;9.45;;
78197;SDS011;67472;51.554;7.812;2023-07-29T05:58:45;13.32;;;9.15;;
78197;SDS011;67472;51.554;7.812;2023-07-29T06:01:31;11.18;;;8.98;;
78197;SDS011;67472;51.554;7.812;2023-07-29T06:04:17;10.27;;;9.27;;
78197;SDS011;67472;51.554;7.812;2023-07-29T06:07:05;11.38;;;9.38;;
78197;SDS011;67472;51.554;7.812;2023-07-29T06:09:53;10.48;;;8.90;;
78197;SDS011;67472;51.554;7.812;2023-07-29T06:12:40;15.55;;;10.18;;
78197;SDS011;67472;51.554;7.812;2023-07-29T06:15:26;12.27;;;9.25;;
78197;SDS011;67472;51.554;7.812;2023-07-29T06:18:12;14.25;;;10.82;;
78197;SDS011;67472;51.554;7.812;2023-07-29T06:20:58;13.02;;;10.20;;
78197;SDS011;67472;51.554;7.812;2023-07-29T06:23:46;13.55;;;11.07;;
78197;SDS011;67472;51.554;7.812;2023-07-29T06:26:32;13.57;;;10.75;;
78197;SDS011;67472;51.554;7.812;2023-07-29T06:29:18;12.63;;;10.80;;
78197;SDS011;67472;51.554;7.812;2023-07-29T06:32:05;12.45;;;11.20;;
78197;SDS011;67472;51.554;7.812;2023-07-29T06:34:52;15.02;;;10.88;;
78197;SDS011;67472;51.554;7.812;2023-07-29T06:37:38;12.93;;;11.45;;
78197;SDS011;67472;51.554;7.812;2023-07-29T06:40:26;13.60;;;11.90;;
78197;SDS011;67472;51.554;7.812;2023-07-29T06:43:12;17.00;;;13.55;;
78197;SDS011;67472;51.554;7.812;2023-07-29T06:45:58;16.67;;;11.88;;
78197;SDS011;67472;51.554;7.812;2023-07-29T06:48:44;15.52;;;13.18;;
78197;SDS011;67472;51.554;7.812;2023-07-29T06:51:30;15.88;;;12.50;;
78197;SDS011;67472;51.554;7.812;2023-07-29T06:54:22;12.80;;;11.13;;
78197;SDS011;67472;51.554;7.812;2023-07-29T06:57:11;14.52;;;11.43;;
78197;SDS011;67472;51.554;7.812;2023-07-29T06:59:57;14.60;;;11.02;;
78197;SDS011;67472;51.554;7.812;2023-07-29T07:02:43;15.60;;;11.68;;
78197;SDS011;67472;51.554;7.812;2023-07-29T07:05:29;15.80;;;11.18;;
78197;SDS011;67472;51.554;7.812;2023-07-29T07:08:15;12.35;;;11.02;;
78197;SDS011;67472;51.554;7.812;2023-07-29T07:11:01;13.45;;;10.95;;
78197;SDS011;67472;51.554;7.812;2023-07-29T07:13:48;17.27;;;11.73;;
78197;SDS011;67472;51.554;7.812;2023-07-29T07:16:34;12.43;;;10.88;;
78197;SDS011;67472;51.554;7.812;2023-07-29T07:19:21;15.27;;;10.10;;
78197;SDS011;67472;51.554;7.812;2023-07-29T07:22:07;10.73;;;9.35;;
78197;SDS011;67472;51.554;7.812;2023-07-29T07:24:53;10.32;;;8.95;;
78197;SDS011;67472;51.554;7.812;2023-07-29T07:27:39;7.43;;;6.63;;
78197;SDS011;67472;51.554;7.812;2023-07-29T07:30:27;6.30;;;5.65;;
78197;SDS011;67472;51.554;7.812;2023-07-29T07:33:13;5.68;;;5.03;;
78197;SDS011;67472;51.554;7.812;2023-07-29T07:36:00;3.75;;;3.45;;
78197;SDS011;67472;51.554;7.812;2023-07-29T07:38:46;3.88;;;3.58;;
78197;SDS011;67472;51.554;7.812;2023-07-29T07:41:32;5.22;;;3.13;;
78197;SDS011;67472;51.554;7.812;2023-07-29T07:44:18;3.00;;;2.70;;
78197;SDS011;67472;51.554;7.812;2023-07-29T07:47:05;3.92;;;3.10;;
78197;SDS011;67472;51.554;7.812;2023-07-29T07:49:51;3.80;;;2.40;;
78197;SDS011;67472;51.554;7.812;2023-07-29T07:52:37;2.45;;;2.05;;
78197;SDS011;67472;51.554;7.812;2023-07-29T07:55:24;3.55;;;2.60;;
78197;SDS011;67472;51.554;7.812;2023-07-29T07:58:10;3.70;;;2.88;;
78197;SDS011;67472;51.554;7.812;2023-07-29T08:01:00;6.63;;;3.15;;
78197;SDS011;67472;51.554;7.812;2023-07-29T08:03:48;3.55;;;3.08;;
78197;SDS011;67472;51.554;7.812;2023-07-29T08:06:34;3.80;;;2.72;;
78197;SDS011;67472;51.554;7.812;2023-07-29T08:09:21;3.03;;;2.42;;
78197;SDS011;67472;51.554;7.812;2023-07-29T08:12:07;4.05;;;2.22;;
78197;SDS011;67472;51.554;7.812;2023-07-29T08:14:54;4.05;;;1.88;;
78197;SDS011;67472;51.554;7.812;2023-07-29T08:17:40;2.35;;;1.70;;
78197;SDS011;67472;51.554;7.812;2023-07-29T08:20:27;2.42;;;1.63;;
78197;SDS011;67472;51.554;7.812;2023-07-29T08:23:14;1.55;;;1.45;;
78197;SDS011;67472;51.554;7.812;2023-07-29T08:26:01;2.53;;;1.30;;
78197;SDS011;67472;51.554;7.812;2023-07-29T08:28:49;55.20;;;12.13;;
78197;SDS011;67472;51.554;7.812;2023-07-29T08:31:36;4.68;;;1.65;;
78197;SDS011;67472;51.554;7.812;2023-07-29T08:34:22;3.95;;;1.92;;
78197;SDS011;67472;51.554;7.812;2023-07-29T08:37:09;3.72;;;1.05;;
78197;SDS011;67472;51.554;7.812;2023-07-29T08:39:56;2.72;;;1.05;;
78197;SDS011;67472;51.554;7.812;2023-07-29T08:42:42;0.90;;;0.90;;
78197;SDS011;67472;51.554;7.812;2023-07-29T08:45:33;1.00;;;0.90;;
78197;SDS011;67472;51.554;7.812;2023-07-29T08:48:23;1.10;;;1.10;;
78197;SDS011;67472;51.554;7.812;2023-07-29T08:51:15;2.50;;;1.40;;
78197;SDS011;67472;51.554;7.812;2023-07-29T08:54:04;2.05;;;1.45;;
78197;SDS011;67472;51.554;7.812;2023-07-29T08:56:50;1.80;;;1.25;;
78197;SDS011;67472;51.554;7.812;2023-07-29T08:59:37;1.60;;;1.20;;
78197;SDS011;67472;51.554;7.812;2023-07-29T09:02:23;1.85;;;1.17;;
78197;SDS011;67472;51.554;7.812;2023-07-29T09:05:10;1.10;;;0.98;;
78197;SDS011;67472;51.554;7.812;2023-07-29T09:07:56;1.77;;;1.20;;
78197;SDS011;67472;51.554;7.812;2023-07-29T09:10:44;1.42;;;1.33;;
78197;SDS011;67472;51.554;7.812;2023-07-29T09:13:30;1.50;;;1.08;;
78197;SDS011;67472;51.554;7.812;2023-07-29T09:16:16;1.20;;;1.10;;
78197;SDS011;67472;51.554;7.812;2023-07-29T09:19:02;1.38;;;1.10;;
78197;SDS011;67472;51.554;7.812;2023-07-29T09:21:49;1.00;;;0.98;;
78197;SDS011;67472;51.554;7.812;2023-07-29T09:24:35;1.30;;;1.20;;
78197;SDS011;67472;51.554;7.812;2023-07-29T09:27:26;1.15;;;1.00;;
78197;SDS011;67472;51.554;7.812;2023-07-29T09:30:15;1.75;;;0.95;;
78197;SDS011;67472;51.554;7.812;2023-07-29T09:33:07;1.15;;;0.90;;
78197;SDS011;67472;51.554;7.812;2023-07-29T09:35:53;1.20;;;1.10;;
78197;SDS011;67472;51.554;7.812;2023-07-29T09:38:40;1.83;;;1.05;;
78197;SDS011;67472;51.554;7.812;2023-07-29T09:41:27;1.10;;;1.00;;
78197;SDS011;67472;51.554;7.812;2023-07-29T09:44:16;0.90;;;0.80;;
78197;SDS011;67472;51.554;7.812;2023-07-29T09:47:03;1.00;;;1.00;;
78197;SDS011;67472;51.554;7.812;2023-07-29T09:49:49;0.80;;;0.70;;
78197;SDS011;67472;51.554;7.812;2023-07-29T09:52:36;2.97;;;1.23;;
78197;SDS011;67472;51.554;7.812;2023-07-29T09:55:22;2.13;;;0.93;;
78197;SDS011;67472;51.554;7.812;2023-07-29T09:58:09;0.70;;;0.70;;
78197;SDS011;67472;51.554;7.812;2023-07-29T10:00:57;2.38;;;0.77;;
78197;SDS011;67472;51.554;7.812;2023-07-29T10:03:44;0.63;;;0.63;;
78197;SDS011;67472;51.554;7.812;2023-07-29T10:06:30;1.08;;;0.80;;
78197;SDS011;67472;51.554;7.812;2023-07-29T10:09:18;0.77;;;0.77;;
78197;SDS011;67472;51.554;7.812;2023-07-29T10:12:06;4.90;;;1.00;;
78197;SDS011;67472;51.554;7.812;2023-07-29T10:14:53;0.70;;;0.70;;
78197;SDS011;67472;51.554;7.812;2023-07-29T10:17:42;0.73;;;0.73;;
78197;SDS011;67472;51.554;7.812;2023-07-29T10:20:28;1.98;;;0.90;;
78197;SDS011;67472;51.554;7.812;2023-07-29T10:23:16;1.08;;;0.98;;
78197;SDS011;67472;51.554;7.812;2023-07-29T10:26:04;1.77;;;0.93;;
78197;SDS011;67472;51.554;7.812;2023-07-29T10:28:53;1.17;;;1.00;;
78197;SDS011;67472;51.554;7.812;2023-07-29T10:31:49;1.52;;;0.93;;
78197;SDS011;67472;51.554;7.812;2023-07-29T10:34:40;5.38;;;1.35;;
78197;SDS011;67472;51.554;7.812;2023-07-29T10:37:27;2.80;;;0.90;;
78197;SDS011;67472;51.554;7.812;2023-07-29T10:40:13;4.80;;;0.95;;
78197;SDS011;67472;51.554;7.812;2023-07-29T10:43:01;0.93;;;0.80;;
78197;SDS011;67472;51.554;7.812;2023-07-29T10:45:48;1.33;;;1.05;;
78197;SDS011;67472;51.554;7.812;2023-07-29T10:48:40;1.25;;;0.85;;
78197;SDS011;67472;51.554;7.812;2023-07-29T10:51:29;1.05;;;0.82;;
78197;SDS011;67472;51.554;7.812;2023-07-29T10:54:21;1.73;;;1.08;;
78197;SDS011;67472;51.554;7.812;2023-07-29T10:57:07;0.95;;;0.80;;
78197;SDS011;67472;51.554;7.812;2023-07-29T10:59:54;1.02;;;1.00;;
78197;SDS011;67472;51.554;7.812;2023-07-29T11:02:41;0.68;;;0.68;;
78197;SDS011;67472;51.554;7.812;2023-07-29T11:05:27;1.67;;;0.95;;
78197;SDS011;67472;51.554;7.812;2023-07-29T11:08:30;2.45;;;0.80;;
78197;SDS011;67472;51.554;7.812;2023-07-29T11:11:18;3.05;;;1.05;;
78197;SDS011;67472;51.554;7.812;2023-07-29T11:14:04;1.23;;;1.13;;
78197;SDS011;67472;51.554;7.812;2023-07-29T11:16:51;1.23;;;1.05;;
78197;SDS011;67472;51.554;7.812;2023-07-29T11:19:39;4.68;;;1.48;;
78197;SDS011;67472;51.554;7.812;2023-07-29T11:22:26;2.10;;;1.90;;
78197;SDS011;67472;51.554;7.812;2023-07-29T11:25:14;2.30;;;1.67;;
78197;SDS011;67472;51.554;7.812;2023-07-29T11:28:00;1.40;;;1.30;;
78197;SDS011;67472;51.554;7.812;2023-07-29T11:30:47;1.17;;;1.17;;
78197;SDS011;67472;51.554;7.812;2023-07-29T11:33:34;1.30;;;1.20;;
78197;SDS011;67472;51.554;7.812;2023-07-29T11:36:21;1.60;;;1.50;;
78197;SDS011;67472;51.554;7.812;2023-07-29T11:39:09;1.60;;;1.50;;
78197;SDS011;67472;51.554;7.812;2023-07-29T11:41:57;1.08;;;0.98;;
78197;SDS011;67472;51.554;7.812;2023-07-29T11:44:44;3.33;;;1.30;;
78197;SDS011;67472;51.554;7.812;2023-07-29T11:47:30;1.00;;;1.00;;
78197;SDS011;67472;51.554;7.812;2023-07-29T11:50:20;1.13;;;1.00;;
78197;SDS011;67472;51.554;7.812;2023-07-29T11:53:06;1.00;;;1.00;;
78197;SDS011;67472;51.554;7.812;2023-07-29T11:55:52;1.48;;;1.00;;
78197;SDS011;67472;51.554;7.812;2023-07-29T11:58:40;1.50;;;1.33;;
78197;SDS011;67472;51.554;7.812;2023-07-29T12:01:27;1.33;;;1.15;;
78197;SDS011;67472;51.554;7.812;2023-07-29T12:04:14;3.35;;;1.35;;
78197;SDS011;67472;51.554;7.812;2023-07-29T12:07:01;1.38;;;1.10;;
78197;SDS011;67472;51.554;7.812;2023-07-29T12:09:48;1.50;;;1.40;;
78197;SDS011;67472;51.554;7.812;2023-07-29T12:12:38;1.40;;;1.30;;
78197;SDS011;67472;51.554;7.812;2023-07-29T12:15:30;1.52;;;1.17;;
78197;SDS011;67472;51.554;7.812;2023-07-29T12:18:17;1.02;;;1.02;;
78197;SDS011;67472;51.554;7.812;2023-07-29T12:21:03;1.10;;;1.00;;
78197;SDS011;67472;51.554;7.812;2023-07-29T12:23:49;1.45;;;1.20;;
78197;SDS011;67472;51.554;7.812;2023-07-29T12:26:36;1.50;;;1.40;;
78197;SDS011;67472;51.554;7.812;2023-07-29T12:29:22;1.40;;;1.30;;
78197;SDS011;67472;51.554;7.812;2023-07-29T12:32:10;1.70;;;1.60;;
78197;SDS011;67472;51.554;7.812;2023-07-29T12:34:56;3.25;;;1.48;;
78197;SDS011;67472;51.554;7.812;2023-07-29T12:37:42;2.53;;;1.50;;
78197;SDS011;67472;51.554;7.812;2023-07-29T12:40:28;3.00;;;1.40;;
78197;SDS011;67472;51.554;7.812;2023-07-29T12:43:14;1.35;;;1.25;;
78197;SDS011;67472;51.554;7.812;2023-07-29T12:46:01;1.20;;;1.10;;
78197;SDS011;67472;51.554;7.812;2023-07-29T12:48:48;3.08;;;1.20;;
78197;SDS011;67472;51.554;7.812;2023-07-29T12:51:34;1.25;;;1.13;;
78197;SDS011;67472;51.554;7.812;2023-07-29T12:54:20;1.40;;;1.20;;
78197;SDS011;67472;51.554;7.812;2023-07-29T12:57:06;1.77;;;1.00;;
78197;SDS011;67472;51.554;7.812;2023-07-29T12:59:52;1.58;;;1.02;;
78197;SDS011;67472;51.554;7.812;2023-07-29T13:02:38;1.00;;;0.90;;
78197;SDS011;67472;51.554;7.812;2023-07-29T13:05:26;2.58;;;1.05;;
78197;SDS011;67472;51.554;7.812;2023-07-29T13:08:12;1.23;;;0.98;;
78197;SDS011;67472;51.554;7.812;2023-07-29T13:10:58;1.35;;;1.13;;
78197;SDS011;67472;51.554;7.812;2023-07-29T13:13:44;1.95;;;1.10;;
78197;SDS011;67472;51.554;7.812;2023-07-29T13:16:31;1.40;;;1.27;;
78197;SDS011;67472;51.554;7.812;2023-07-29T13:19:18;1.27;;;1.10;;
78197;SDS011;67472;51.554;7.812;2023-07-29T13:22:05;4.38;;;1.20;;
78197;SDS011;67472;51.554;7.812;2023-07-29T13:24:51;1.13;;;1.00;;
78197;SDS011;67472;51.554;7.812;2023-07-29T13:27:37;1.45;;;1.08;;
78197;SDS011;67472;51.554;7.812;2023-07-29T13:30:23;1.80;;;1.27;;
78197;SDS011;67472;51.554;7.812;2023-07-29T13:33:09;1.42;;;1.17;;
78197;SDS011;67472;51.554;7.812;2023-07-29T13:35:55;1.10;;;1.00;;
78197;SDS011;67472;51.554;7.812;2023-07-29T13:38:43;1.80;;;1.70;;
78197;SDS011;67472;51.554;7.812;2023-07-29T13:41:29;1.13;;;1.08;;
78197;SDS011;67472;51.554;7.812;2023-07-29T13:44:15;1.48;;;1.38;;
78197;SDS011;67472;51.554;7.812;2023-07-29T13:47:01;3.67;;;1.27;;
78197;SDS011;67472;51.554;7.812;2023-07-29T13:49:48;2.92;;;1.17;;
78197;SDS011;67472;51.554;7.812;2023-07-29T13:52:35;1.15;;;1.05;;
78197;SDS011;67472;51.554;7.812;2023-07-29T13:55:23;1.90;;;1.00;;
78197;SDS011;67472;51.554;7.812;2023-07-29T13:58:09;1.75;;;1.10;;
78197;SDS011;67472;51.554;7.812;2023-07-29T14:00:55;4.05;;;1.17;;
78197;SDS011;67472;51.554;7.812;2023-07-29T14:03:41;1.17;;;1.08;;
78197;SDS011;67472;51.554;7.812;2023-07-29T14:06:28;1.20;;;1.10;;
78197;SDS011;67472;51.554;7.812;2023-07-29T14:09:15;1.85;;;1.50;;
78197;SDS011;67472;51.554;7.812;2023-07-29T14:12:03;1.92;;;1.20;;
78197;SDS011;67472;51.554;7.812;2023-07-29T14:14:49;1.98;;;1.50;;
78197;SDS011;67472;51.554;7.812;2023-07-29T14:17:35;2.08;;;1.67;;
78197;SDS011;67472;51.554;7.812;2023-07-29T14:20:22;1.10;;;1.10;;
78197;SDS011;67472;51.554;7.812;2023-07-29T14:23:08;2.38;;;1.30;;
78197;SDS011;67472;51.554;7.812;2023-07-29T14:25:54;1.48;;;1.23;;
78197;SDS011;67472;51.554;7.812;2023-07-29T14:28:42;1.73;;;1.42;;
78197;SDS011;67472;51.554;7.812;2023-07-29T14:31:28;1.20;;;1.10;;
78197;SDS011;67472;51.554;7.812;2023-07-29T14:34:14;4.00;;;1.83;;
78197;SDS011;67472;51.554;7.812;2023-07-29T14:37:00;1.60;;;1.50;;
78197;SDS011;67472;51.554;7.812;2023-07-29T14:39:46;1.92;;;1.20;;
78197;SDS011;67472;51.554;7.812;2023-07-29T14:42:33;1.10;;;1.05;;
78197;SDS011;67472;51.554;7.812;2023-07-29T14:45:20;1.50;;;1.40;;
78197;SDS011;67472;51.554;7.812;2023-07-29T14:48:07;4.88;;;1.77;;
78197;SDS011;67472;51.554;7.812;2023-07-29T14:50:53;2.25;;;1.40;;
78197;SDS011;67472;51.554;7.812;2023-07-29T14:53:39;1.77;;;1.55;;
78197;SDS011;67472;51.554;7.812;2023-07-29T14:56:25;3.47;;;1.77;;
78197;SDS011;67472;51.554;7.812;2023-07-29T14:59:11;2.05;;;1.70;;
78197;SDS011;67472;51.554;7.812;2023-07-29T15:01:58;2.08;;;1.90;;
78197;SDS011;67472;51.554;7.812;2023-07-29T15:04:44;4.13;;;1.73;;
78197;SDS011;67472;51.554;7.812;2023-07-29T15:07:30;6.00;;;2.08;;
78197;SDS011;67472;51.554;7.812;2023-07-29T15:10:17;3.63;;;2.15;;
78197;SDS011;67472;51.554;7.812;2023-07-29T15:13:04;5.13;;;1.95;;
78197;SDS011;67472;51.554;7.812;2023-07-29T15:15:51;4.13;;;1.58;;
78197;SDS011;67472;51.554;7.812;2023-07-29T15:18:38;3.45;;;1.33;;
78197;SDS011;67472;51.554;7.812;2023-07-29T15:21:24;3.28;;;1.98;;
78197;SDS011;67472;51.554;7.812;2023-07-29T15:24:11;8.43;;;1.95;;
78197;SDS011;67472;51.554;7.812;2023-07-29T15:26:56;4.03;;;1.38;;
78197;SDS011;67472;51.554;7.812;2023-07-29T15:29:42;3.95;;;1.92;;
78197;SDS011;67472;51.554;7.812;2023-07-29T15:32:28;6.68;;;1.42;;
78197;SDS011;67472;51.554;7.812;2023-07-29T15:35:16;4.70;;;1.52;;
78197;SDS011;67472;51.554;7.812;2023-07-29T15:38:02;3.42;;;1.95;;
78197;SDS011;67472;51.554;7.812;2023-07-29T15:40:48;2.70;;;1.40;;
78197;SDS011;67472;51.554;7.812;2023-07-29T15:43:36;1.92;;;1.15;;
78197;SDS011;67472;51.554;7.812;2023-07-29T15:46:22;1.88;;;0.77;;
78197;SDS011;67472;51.554;7.812;2023-07-29T15:49:08;1.73;;;0.90;;
78197;SDS011;67472;51.554;7.812;2023-07-29T15:51:55;3.50;;;1.40;;
78197;SDS011;67472;51.554;7.812;2023-07-29T15:54:41;34.15;;;13.63;;
78197;SDS011;67472;51.554;7.812;2023-07-29T15:57:28;16.08;;;6.07;;
78197;SDS011;67472;51.554;7.812;2023-07-29T16:00:14;10.80;;;4.85;;
78197;SDS011;67472;51.554;7.812;2023-07-29T16:03:00;4.28;;;2.30;;
78197;SDS011;67472;51.554;7.812;2023-07-29T16:05:46;2.40;;;1.13;;
78197;SDS011;67472;51.554;7.812;2023-07-29T16:08:34;5.28;;;1.25;;
78197;SDS011;67472;51.554;7.812;2023-07-29T16:11:20;2.53;;;1.05;;
78197;SDS011;67472;51.554;7.812;2023-07-29T16:14:06;1.48;;;1.05;;
78197;SDS011;67472;51.554;7.812;2023-07-29T16:16:52;1.85;;;1.05;;
78197;SDS011;67472;51.554;7.812;2023-07-29T16:19:51;3.35;;;1.25;;
78197;SDS011;67472;51.554;7.812;2023-07-29T16:22:39;4.32;;;1.60;;
78197;SDS011;67472;51.554;7.812;2023-07-29T16:25:26;1.10;;;0.60;;
78197;SDS011;67472;51.554;7.812;2023-07-29T16:28:12;4.25;;;0.80;;
78197;SDS011;67472;51.554;7.812;2023-07-29T16:30:58;2.95;;;0.80;;
78197;SDS011;67472;51.554;7.812;2023-07-29T16:33:45;37.97;;;3.30;;
78197;SDS011;67472;51.554;7.812;2023-07-29T16:36:31;6.93;;;1.02;;
78197;SDS011;67472;51.554;7.812;2023-07-29T16:39:17;6.07;;;1.00;;
78197;SDS011;67472;51.554;7.812;2023-07-29T16:42:05;9.40;;;1.08;;
78197;SDS011;67472;51.554;7.812;2023-07-29T16:44:51;0.77;;;0.77;;